KTCL/TCL METAR and TAF weather

Enter ICAO airport designator
Station Type Date Time Source
KTCL METAR 2022/06/28 23:53 UTC NOAA

KTCL 282353Z 35005KT 10SM CLR 30/21 A3006 RMK AO2 SLP177 T03000211 10322 20300 55000


Station Type Date Time Source
KTCL Decoded METAR 2022/06/28 23:53 UTC NOAA

TUSCALOOSA REGIONAL AIRPORT, AL, United States (KTCL) 33-13N 087-37W
Jun 28, 2022 - 07:53 PM EDT / 2022.06.28 2353 UTC
Wind: from the N (350 degrees) at 6 MPH (5 KT):0
Visibility: 10 mile(s):0
Sky conditions: clear
Temperature: 86.0 F (30.0 C)
Dew Point: 70.0 F (21.1 C)
Relative Humidity: 58%
Pressure (altimeter): 30.06 in. Hg (1017 hPa)
Pressure tendency: 0.00 inches (0.0 hPa) lower than three hours ago
ob: KTCL 282353Z 35005KT 10SM CLR 30/21 A3006 RMK AO2 SLP177 T03000211 10322 20300 55000
cycle: 0

Station Type Date Time Source
KTCL TAF 2022/06/28 18:30 UTC NOAA

TAF KTCL 281727Z 2818/2918 36004KT P6SM SCT050 BKN150
FM282000 03005KT P6SM VCTS SCT050CB BKN150
FM282300 VRB03KT P6SM SCT060 BKN250
FM290200 VRB04KT P6SM BKN250
FM291100 VRB03KT P6SM OVC012
FM291600 VRB04KT P6SM BKN045

Example: see airport list